sensor_id;sensor_type;location;lat;lon;timestamp;P1;durP1;ratioP1;P2;durP2;ratioP2
7080;SDS011;3582;51.506;11.948;2022-11-20T00:02:23;29.23;;;17.50;;
7080;SDS011;3582;51.506;11.948;2022-11-20T00:04:49;21.87;;;16.80;;
7080;SDS011;3582;51.506;11.948;2022-11-20T00:07:15;26.23;;;15.97;;
7080;SDS011;3582;51.506;11.948;2022-11-20T00:09:40;24.67;;;16.23;;
7080;SDS011;3582;51.506;11.948;2022-11-20T00:12:06;25.10;;;16.05;;
7080;SDS011;3582;51.506;11.948;2022-11-20T00:14:32;27.17;;;19.17;;
7080;SDS011;3582;51.506;11.948;2022-11-20T00:16:58;27.77;;;16.67;;
7080;SDS011;3582;51.506;11.948;2022-11-20T00:19:24;24.23;;;15.67;;
7080;SDS011;3582;51.506;11.948;2022-11-20T00:21:50;19.80;;;15.38;;
7080;SDS011;3582;51.506;11.948;2022-11-20T00:24:18;26.48;;;16.38;;
7080;SDS011;3582;51.506;11.948;2022-11-20T00:26:44;27.60;;;18.95;;
7080;SDS011;3582;51.506;11.948;2022-11-20T00:29:10;25.03;;;15.30;;
7080;SDS011;3582;51.506;11.948;2022-11-20T00:31:36;23.13;;;15.20;;
7080;SDS011;3582;51.506;11.948;2022-11-20T00:34:02;26.00;;;16.10;;
7080;SDS011;3582;51.506;11.948;2022-11-20T00:36:31;21.63;;;16.00;;
7080;SDS011;3582;51.506;11.948;2022-11-20T00:38:57;26.23;;;17.02;;
7080;SDS011;3582;51.506;11.948;2022-11-20T00:41:24;27.05;;;16.05;;
7080;SDS011;3582;51.506;11.948;2022-11-20T00:43:53;25.60;;;16.75;;
7080;SDS011;3582;51.506;11.948;2022-11-20T00:46:20;24.77;;;17.48;;
7080;SDS011;3582;51.506;11.948;2022-11-20T00:48:46;31.25;;;16.67;;
7080;SDS011;3582;51.506;11.948;2022-11-20T00:51:14;25.17;;;16.88;;
7080;SDS011;3582;51.506;11.948;2022-11-20T00:53:40;25.83;;;15.95;;
7080;SDS011;3582;51.506;11.948;2022-11-20T00:56:07;21.10;;;17.13;;
7080;SDS011;3582;51.506;11.948;2022-11-20T00:58:34;29.23;;;17.15;;
7080;SDS011;3582;51.506;11.948;2022-11-20T01:01:07;20.27;;;15.35;;
7080;SDS011;3582;51.506;11.948;2022-11-20T01:03:43;24.55;;;14.93;;
7080;SDS011;3582;51.506;11.948;2022-11-20T01:06:10;26.67;;;18.42;;
7080;SDS011;3582;51.506;11.948;2022-11-20T01:08:37;23.92;;;15.80;;
7080;SDS011;3582;51.506;11.948;2022-11-20T01:11:08;27.10;;;17.25;;
7080;SDS011;3582;51.506;11.948;2022-11-20T01:13:34;21.27;;;14.98;;
7080;SDS011;3582;51.506;11.948;2022-11-20T01:16:04;25.75;;;15.23;;
7080;SDS011;3582;51.506;11.948;2022-11-20T01:18:31;42.53;;;31.23;;
7080;SDS011;3582;51.506;11.948;2022-11-20T01:21:00;19.70;;;15.73;;
7080;SDS011;3582;51.506;11.948;2022-11-20T01:23:29;30.33;;;16.55;;
7080;SDS011;3582;51.506;11.948;2022-11-20T01:25:55;25.58;;;16.58;;
7080;SDS011;3582;51.506;11.948;2022-11-20T01:28:21;22.67;;;14.10;;
7080;SDS011;3582;51.506;11.948;2022-11-20T01:30:47;24.10;;;14.30;;
7080;SDS011;3582;51.506;11.948;2022-11-20T01:33:13;26.13;;;16.03;;
7080;SDS011;3582;51.506;11.948;2022-11-20T01:35:39;26.40;;;16.17;;
7080;SDS011;3582;51.506;11.948;2022-11-20T01:38:05;21.00;;;15.50;;
7080;SDS011;3582;51.506;11.948;2022-11-20T01:40:31;21.53;;;15.23;;
7080;SDS011;3582;51.506;11.948;2022-11-20T01:43:06;22.87;;;15.20;;
7080;SDS011;3582;51.506;11.948;2022-11-20T01:45:54;23.38;;;16.90;;
7080;SDS011;3582;51.506;11.948;2022-11-20T01:48:22;22.35;;;14.95;;
7080;SDS011;3582;51.506;11.948;2022-11-20T01:50:48;21.27;;;14.70;;
7080;SDS011;3582;51.506;11.948;2022-11-20T01:53:16;27.52;;;16.70;;
7080;SDS011;3582;51.506;11.948;2022-11-20T01:55:46;25.02;;;16.08;;
7080;SDS011;3582;51.506;11.948;2022-11-20T01:58:13;26.10;;;16.40;;
7080;SDS011;3582;51.506;11.948;2022-11-20T02:00:39;23.67;;;15.32;;
7080;SDS011;3582;51.506;11.948;2022-11-20T02:03:09;27.73;;;18.20;;
7080;SDS011;3582;51.506;11.948;2022-11-20T02:05:45;29.77;;;17.02;;
7080;SDS011;3582;51.506;11.948;2022-11-20T02:08:12;21.52;;;13.85;;
7080;SDS011;3582;51.506;11.948;2022-11-20T02:10:38;23.67;;;15.35;;
7080;SDS011;3582;51.506;11.948;2022-11-20T02:13:04;24.02;;;16.05;;
7080;SDS011;3582;51.506;11.948;2022-11-20T02:15:49;23.67;;;15.55;;
7080;SDS011;3582;51.506;11.948;2022-11-20T02:18:16;27.85;;;15.40;;
7080;SDS011;3582;51.506;11.948;2022-11-20T02:20:43;21.80;;;14.02;;
7080;SDS011;3582;51.506;11.948;2022-11-20T02:23:32;25.13;;;15.55;;
7080;SDS011;3582;51.506;11.948;2022-11-20T02:25:56;20.77;;;15.23;;
7080;SDS011;3582;51.506;11.948;2022-11-20T02:28:23;24.95;;;14.77;;
7080;SDS011;3582;51.506;11.948;2022-11-20T02:30:49;21.80;;;15.30;;
7080;SDS011;3582;51.506;11.948;2022-11-20T02:33:15;29.87;;;17.97;;
7080;SDS011;3582;51.506;11.948;2022-11-20T02:35:42;25.63;;;16.37;;
7080;SDS011;3582;51.506;11.948;2022-11-20T02:38:08;22.02;;;15.80;;
7080;SDS011;3582;51.506;11.948;2022-11-20T02:40:35;24.13;;;15.57;;
7080;SDS011;3582;51.506;11.948;2022-11-20T02:43:01;24.67;;;14.23;;
7080;SDS011;3582;51.506;11.948;2022-11-20T02:45:27;20.23;;;16.48;;
7080;SDS011;3582;51.506;11.948;2022-11-20T02:47:53;22.05;;;15.13;;
7080;SDS011;3582;51.506;11.948;2022-11-20T02:50:19;22.67;;;14.30;;
7080;SDS011;3582;51.506;11.948;2022-11-20T02:52:45;21.42;;;15.05;;
7080;SDS011;3582;51.506;11.948;2022-11-20T02:55:11;21.75;;;17.48;;
7080;SDS011;3582;51.506;11.948;2022-11-20T02:57:37;24.03;;;14.77;;
7080;SDS011;3582;51.506;11.948;2022-11-20T03:00:03;23.47;;;14.87;;
7080;SDS011;3582;51.506;11.948;2022-11-20T03:02:30;20.88;;;15.73;;
7080;SDS011;3582;51.506;11.948;2022-11-20T03:04:56;22.27;;;15.38;;
7080;SDS011;3582;51.506;11.948;2022-11-20T03:07:22;25.23;;;15.50;;
7080;SDS011;3582;51.506;11.948;2022-11-20T03:09:48;23.60;;;15.53;;
7080;SDS011;3582;51.506;11.948;2022-11-20T03:12:14;26.73;;;16.93;;
7080;SDS011;3582;51.506;11.948;2022-11-20T03:14:40;27.15;;;15.38;;
7080;SDS011;3582;51.506;11.948;2022-11-20T03:17:06;28.03;;;16.80;;
7080;SDS011;3582;51.506;11.948;2022-11-20T03:19:32;22.30;;;14.55;;
7080;SDS011;3582;51.506;11.948;2022-11-20T03:21:59;25.60;;;16.95;;
7080;SDS011;3582;51.506;11.948;2022-11-20T03:24:25;23.20;;;14.73;;
7080;SDS011;3582;51.506;11.948;2022-11-20T03:26:51;23.67;;;15.45;;
7080;SDS011;3582;51.506;11.948;2022-11-20T03:29:17;25.27;;;15.87;;
7080;SDS011;3582;51.506;11.948;2022-11-20T03:31:43;27.50;;;15.77;;
7080;SDS011;3582;51.506;11.948;2022-11-20T03:34:09;24.30;;;15.77;;
7080;SDS011;3582;51.506;11.948;2022-11-20T03:36:39;20.63;;;14.75;;
7080;SDS011;3582;51.506;11.948;2022-11-20T03:39:06;26.45;;;18.50;;
7080;SDS011;3582;51.506;11.948;2022-11-20T03:41:35;24.63;;;16.50;;
7080;SDS011;3582;51.506;11.948;2022-11-20T03:44:02;25.73;;;17.25;;
7080;SDS011;3582;51.506;11.948;2022-11-20T03:46:28;24.70;;;15.43;;
7080;SDS011;3582;51.506;11.948;2022-11-20T03:48:54;22.85;;;15.43;;
7080;SDS011;3582;51.506;11.948;2022-11-20T03:51:22;26.95;;;16.60;;
7080;SDS011;3582;51.506;11.948;2022-11-20T03:53:48;21.35;;;14.25;;
7080;SDS011;3582;51.506;11.948;2022-11-20T03:56:15;29.35;;;18.80;;
7080;SDS011;3582;51.506;11.948;2022-11-20T03:58:41;22.33;;;16.77;;
7080;SDS011;3582;51.506;11.948;2022-11-20T04:01:09;21.38;;;15.38;;
7080;SDS011;3582;51.506;11.948;2022-11-20T04:03:35;24.13;;;16.73;;
7080;SDS011;3582;51.506;11.948;2022-11-20T04:06:05;23.60;;;17.40;;
7080;SDS011;3582;51.506;11.948;2022-11-20T04:08:31;24.40;;;14.93;;
7080;SDS011;3582;51.506;11.948;2022-11-20T04:11:19;25.13;;;16.23;;
7080;SDS011;3582;51.506;11.948;2022-11-20T04:14:17;28.55;;;16.13;;
7080;SDS011;3582;51.506;11.948;2022-11-20T04:16:36;27.20;;;17.30;;
7080;SDS011;3582;51.506;11.948;2022-11-20T04:19:03;28.77;;;16.77;;
7080;SDS011;3582;51.506;11.948;2022-11-20T04:21:29;23.13;;;16.55;;
7080;SDS011;3582;51.506;11.948;2022-11-20T04:23:55;24.35;;;15.38;;
7080;SDS011;3582;51.506;11.948;2022-11-20T04:26:22;26.52;;;14.98;;
7080;SDS011;3582;51.506;11.948;2022-11-20T04:28:49;20.08;;;15.07;;
7080;SDS011;3582;51.506;11.948;2022-11-20T04:31:16;24.40;;;16.13;;
7080;SDS011;3582;51.506;11.948;2022-11-20T04:33:42;23.08;;;15.63;;
7080;SDS011;3582;51.506;11.948;2022-11-20T04:36:15;26.60;;;16.65;;
7080;SDS011;3582;51.506;11.948;2022-11-20T04:38:42;25.13;;;15.55;;
7080;SDS011;3582;51.506;11.948;2022-11-20T04:41:09;27.63;;;17.50;;
7080;SDS011;3582;51.506;11.948;2022-11-20T04:43:36;27.73;;;17.05;;
7080;SDS011;3582;51.506;11.948;2022-11-20T04:46:02;24.80;;;16.03;;
7080;SDS011;3582;51.506;11.948;2022-11-20T04:48:28;26.25;;;15.52;;
7080;SDS011;3582;51.506;11.948;2022-11-20T04:50:54;22.42;;;14.98;;
7080;SDS011;3582;51.506;11.948;2022-11-20T04:53:21;26.45;;;15.63;;
7080;SDS011;3582;51.506;11.948;2022-11-20T04:55:47;31.38;;;17.27;;
7080;SDS011;3582;51.506;11.948;2022-11-20T04:58:13;20.05;;;15.45;;
7080;SDS011;3582;51.506;11.948;2022-11-20T05:00:39;22.80;;;17.70;;
7080;SDS011;3582;51.506;11.948;2022-11-20T05:03:06;27.40;;;17.38;;
7080;SDS011;3582;51.506;11.948;2022-11-20T05:05:33;25.95;;;16.23;;
7080;SDS011;3582;51.506;11.948;2022-11-20T05:07:59;25.27;;;16.50;;
7080;SDS011;3582;51.506;11.948;2022-11-20T05:10:25;28.63;;;16.37;;
7080;SDS011;3582;51.506;11.948;2022-11-20T05:12:51;26.67;;;17.02;;
7080;SDS011;3582;51.506;11.948;2022-11-20T05:15:17;26.95;;;16.75;;
7080;SDS011;3582;51.506;11.948;2022-11-20T05:17:47;33.30;;;16.80;;
7080;SDS011;3582;51.506;11.948;2022-11-20T05:20:13;23.00;;;16.02;;
7080;SDS011;3582;51.506;11.948;2022-11-20T05:22:39;28.58;;;18.08;;
7080;SDS011;3582;51.506;11.948;2022-11-20T05:25:05;29.10;;;17.67;;
7080;SDS011;3582;51.506;11.948;2022-11-20T05:27:31;29.00;;;18.45;;
7080;SDS011;3582;51.506;11.948;2022-11-20T05:29:57;30.43;;;17.60;;
7080;SDS011;3582;51.506;11.948;2022-11-20T05:32:23;21.47;;;16.77;;
7080;SDS011;3582;51.506;11.948;2022-11-20T05:34:50;31.17;;;17.52;;
7080;SDS011;3582;51.506;11.948;2022-11-20T05:37:16;27.50;;;17.08;;
7080;SDS011;3582;51.506;11.948;2022-11-20T05:39:42;33.50;;;20.13;;
7080;SDS011;3582;51.506;11.948;2022-11-20T05:42:08;26.20;;;15.67;;
7080;SDS011;3582;51.506;11.948;2022-11-20T05:44:52;32.25;;;18.77;;
7080;SDS011;3582;51.506;11.948;2022-11-20T05:47:18;28.20;;;18.33;;
7080;SDS011;3582;51.506;11.948;2022-11-20T05:49:44;32.63;;;18.90;;
7080;SDS011;3582;51.506;11.948;2022-11-20T05:52:10;33.20;;;19.20;;
7080;SDS011;3582;51.506;11.948;2022-11-20T05:54:36;28.83;;;17.13;;
7080;SDS011;3582;51.506;11.948;2022-11-20T05:57:02;26.48;;;18.45;;
7080;SDS011;3582;51.506;11.948;2022-11-20T05:59:28;33.17;;;18.40;;
7080;SDS011;3582;51.506;11.948;2022-11-20T06:01:54;23.75;;;17.02;;
7080;SDS011;3582;51.506;11.948;2022-11-20T06:04:20;28.27;;;18.70;;
7080;SDS011;3582;51.506;11.948;2022-11-20T06:06:46;26.50;;;16.73;;
7080;SDS011;3582;51.506;11.948;2022-11-20T06:09:12;32.63;;;18.10;;
7080;SDS011;3582;51.506;11.948;2022-11-20T06:11:38;27.40;;;17.07;;
7080;SDS011;3582;51.506;11.948;2022-11-20T06:14:04;26.13;;;16.52;;
7080;SDS011;3582;51.506;11.948;2022-11-20T06:16:30;25.85;;;17.35;;
7080;SDS011;3582;51.506;11.948;2022-11-20T06:18:56;26.15;;;17.27;;
7080;SDS011;3582;51.506;11.948;2022-11-20T06:21:22;34.90;;;18.73;;
7080;SDS011;3582;51.506;11.948;2022-11-20T06:23:49;31.85;;;18.83;;
7080;SDS011;3582;51.506;11.948;2022-11-20T06:26:17;26.27;;;17.45;;
7080;SDS011;3582;51.506;11.948;2022-11-20T06:28:43;25.83;;;17.55;;
7080;SDS011;3582;51.506;11.948;2022-11-20T06:31:10;27.60;;;16.85;;
7080;SDS011;3582;51.506;11.948;2022-11-20T06:33:37;31.75;;;19.55;;
7080;SDS011;3582;51.506;11.948;2022-11-20T06:36:03;29.45;;;17.92;;
7080;SDS011;3582;51.506;11.948;2022-11-20T06:38:29;33.10;;;19.67;;
7080;SDS011;3582;51.506;11.948;2022-11-20T06:40:55;24.42;;;17.52;;
7080;SDS011;3582;51.506;11.948;2022-11-20T06:43:22;30.80;;;19.70;;
7080;SDS011;3582;51.506;11.948;2022-11-20T06:45:51;25.00;;;17.50;;
7080;SDS011;3582;51.506;11.948;2022-11-20T06:48:17;30.08;;;17.25;;
7080;SDS011;3582;51.506;11.948;2022-11-20T06:50:43;31.20;;;16.80;;
7080;SDS011;3582;51.506;11.948;2022-11-20T06:53:09;24.50;;;18.80;;
7080;SDS011;3582;51.506;11.948;2022-11-20T06:55:35;32.33;;;18.87;;
7080;SDS011;3582;51.506;11.948;2022-11-20T06:58:01;33.63;;;20.33;;
7080;SDS011;3582;51.506;11.948;2022-11-20T07:00:27;32.28;;;18.08;;
7080;SDS011;3582;51.506;11.948;2022-11-20T07:02:53;37.10;;;21.70;;
7080;SDS011;3582;51.506;11.948;2022-11-20T07:05:20;29.50;;;16.75;;
7080;SDS011;3582;51.506;11.948;2022-11-20T07:07:45;27.80;;;17.20;;
7080;SDS011;3582;51.506;11.948;2022-11-20T07:10:11;26.48;;;16.63;;
7080;SDS011;3582;51.506;11.948;2022-11-20T07:12:37;24.88;;;16.52;;
7080;SDS011;3582;51.506;11.948;2022-11-20T07:15:04;27.53;;;16.80;;
7080;SDS011;3582;51.506;11.948;2022-11-20T07:17:30;28.10;;;17.75;;
7080;SDS011;3582;51.506;11.948;2022-11-20T07:19:56;23.83;;;17.55;;
7080;SDS011;3582;51.506;11.948;2022-11-20T07:22:22;30.73;;;18.58;;
7080;SDS011;3582;51.506;11.948;2022-11-20T07:24:48;29.92;;;19.90;;
7080;SDS011;3582;51.506;11.948;2022-11-20T07:27:14;32.78;;;18.90;;
7080;SDS011;3582;51.506;11.948;2022-11-20T07:29:40;29.23;;;18.07;;
7080;SDS011;3582;51.506;11.948;2022-11-20T07:32:06;32.17;;;17.70;;
7080;SDS011;3582;51.506;11.948;2022-11-20T07:34:32;27.63;;;17.80;;
7080;SDS011;3582;51.506;11.948;2022-11-20T07:36:58;28.47;;;19.43;;
7080;SDS011;3582;51.506;11.948;2022-11-20T07:39:24;27.90;;;18.83;;
7080;SDS011;3582;51.506;11.948;2022-11-20T07:41:49;25.20;;;17.27;;
7080;SDS011;3582;51.506;11.948;2022-11-20T07:44:15;29.17;;;17.83;;
7080;SDS011;3582;51.506;11.948;2022-11-20T07:46:41;28.80;;;17.53;;
7080;SDS011;3582;51.506;11.948;2022-11-20T07:49:07;33.23;;;19.70;;
7080;SDS011;3582;51.506;11.948;2022-11-20T07:51:33;31.60;;;19.10;;
7080;SDS011;3582;51.506;11.948;2022-11-20T07:53:59;31.63;;;19.93;;
7080;SDS011;3582;51.506;11.948;2022-11-20T07:56:25;37.45;;;21.42;;
7080;SDS011;3582;51.506;11.948;2022-11-20T07:58:51;26.73;;;18.77;;
7080;SDS011;3582;51.506;11.948;2022-11-20T08:01:17;31.23;;;20.10;;
7080;SDS011;3582;51.506;11.948;2022-11-20T08:03:43;32.00;;;21.30;;
7080;SDS011;3582;51.506;11.948;2022-11-20T08:06:09;33.23;;;20.03;;
7080;SDS011;3582;51.506;11.948;2022-11-20T08:08:35;31.02;;;20.67;;
7080;SDS011;3582;51.506;11.948;2022-11-20T08:11:01;28.10;;;19.55;;
7080;SDS011;3582;51.506;11.948;2022-11-20T08:14:00;27.77;;;18.42;;
7080;SDS011;3582;51.506;11.948;2022-11-20T08:16:42;25.65;;;19.08;;
7080;SDS011;3582;51.506;11.948;2022-11-20T08:19:08;27.35;;;18.70;;
7080;SDS011;3582;51.506;11.948;2022-11-20T08:21:34;26.77;;;20.77;;
7080;SDS011;3582;51.506;11.948;2022-11-20T08:24:00;31.80;;;19.42;;
7080;SDS011;3582;51.506;11.948;2022-11-20T08:26:26;26.80;;;19.80;;
7080;SDS011;3582;51.506;11.948;2022-11-20T08:28:53;30.42;;;21.95;;
7080;SDS011;3582;51.506;11.948;2022-11-20T08:31:19;30.40;;;20.95;;
7080;SDS011;3582;51.506;11.948;2022-11-20T08:33:46;34.95;;;21.00;;
7080;SDS011;3582;51.506;11.948;2022-11-20T08:36:12;32.58;;;19.77;;
7080;SDS011;3582;51.506;11.948;2022-11-20T08:38:38;33.75;;;19.75;;
7080;SDS011;3582;51.506;11.948;2022-11-20T08:41:04;32.17;;;19.37;;
7080;SDS011;3582;51.506;11.948;2022-11-20T08:43:52;27.45;;;17.48;;
7080;SDS011;3582;51.506;11.948;2022-11-20T08:46:19;32.15;;;20.05;;
7080;SDS011;3582;51.506;11.948;2022-11-20T08:48:45;37.53;;;20.02;;
7080;SDS011;3582;51.506;11.948;2022-11-20T08:51:11;32.55;;;18.50;;
7080;SDS011;3582;51.506;11.948;2022-11-20T08:53:38;35.80;;;19.77;;
7080;SDS011;3582;51.506;11.948;2022-11-20T08:56:04;34.75;;;19.13;;
7080;SDS011;3582;51.506;11.948;2022-11-20T08:58:30;30.88;;;18.27;;
7080;SDS011;3582;51.506;11.948;2022-11-20T09:00:56;29.00;;;17.30;;
7080;SDS011;3582;51.506;11.948;2022-11-20T09:03:22;27.60;;;17.88;;
7080;SDS011;3582;51.506;11.948;2022-11-20T09:05:48;27.65;;;18.10;;
7080;SDS011;3582;51.506;11.948;2022-11-20T09:08:15;37.00;;;20.98;;
7080;SDS011;3582;51.506;11.948;2022-11-20T09:10:41;33.75;;;19.30;;
7080;SDS011;3582;51.506;11.948;2022-11-20T09:13:07;29.42;;;17.20;;
7080;SDS011;3582;51.506;11.948;2022-11-20T09:15:33;33.97;;;17.45;;
7080;SDS011;3582;51.506;11.948;2022-11-20T09:18:00;32.45;;;18.63;;
7080;SDS011;3582;51.506;11.948;2022-11-20T09:20:27;23.02;;;15.88;;
7080;SDS011;3582;51.506;11.948;2022-11-20T09:22:54;37.28;;;18.55;;
7080;SDS011;3582;51.506;11.948;2022-11-20T09:25:20;28.65;;;16.65;;
7080;SDS011;3582;51.506;11.948;2022-11-20T09:27:46;33.15;;;19.20;;
7080;SDS011;3582;51.506;11.948;2022-11-20T09:30:13;34.03;;;19.65;;
7080;SDS011;3582;51.506;11.948;2022-11-20T09:32:39;28.25;;;17.67;;
7080;SDS011;3582;51.506;11.948;2022-11-20T09:35:05;28.10;;;18.60;;
7080;SDS011;3582;51.506;11.948;2022-11-20T09:37:32;35.58;;;21.10;;
7080;SDS011;3582;51.506;11.948;2022-11-20T09:39:58;32.15;;;18.83;;
7080;SDS011;3582;51.506;11.948;2022-11-20T09:52:55;24.80;;;17.08;;
7080;SDS011;3582;51.506;11.948;2022-11-20T09:55:24;21.92;;;15.48;;
7080;SDS011;3582;51.506;11.948;2022-11-20T09:57:51;24.40;;;16.35;;
7080;SDS011;3582;51.506;11.948;2022-11-20T10:00:17;23.48;;;16.00;;
7080;SDS011;3582;51.506;11.948;2022-11-20T10:02:55;22.65;;;17.15;;
7080;SDS011;3582;51.506;11.948;2022-11-20T10:05:28;22.95;;;15.85;;
7080;SDS011;3582;51.506;11.948;2022-11-20T10:10:33;23.42;;;15.85;;
7080;SDS011;3582;51.506;11.948;2022-11-20T10:13:08;26.50;;;15.88;;
7080;SDS011;3582;51.506;11.948;2022-11-20T10:15:50;20.40;;;15.15;;
7080;SDS011;3582;51.506;11.948;2022-11-20T10:23:32;26.60;;;16.63;;
7080;SDS011;3582;51.506;11.948;2022-11-20T10:26:17;23.98;;;14.65;;
7080;SDS011;3582;51.506;11.948;2022-11-20T10:31:31;21.48;;;14.45;;
7080;SDS011;3582;51.506;11.948;2022-11-20T10:33:59;26.67;;;16.77;;
7080;SDS011;3582;51.506;11.948;2022-11-20T10:36:27;23.98;;;17.02;;
7080;SDS011;3582;51.506;11.948;2022-11-20T10:38:58;27.00;;;15.52;;
7080;SDS011;3582;51.506;11.948;2022-11-20T10:41:27;20.88;;;14.98;;
7080;SDS011;3582;51.506;11.948;2022-11-20T10:44:02;21.30;;;14.70;;
7080;SDS011;3582;51.506;11.948;2022-11-20T10:46:32;24.60;;;16.70;;
7080;SDS011;3582;51.506;11.948;2022-11-20T10:49:02;21.73;;;16.10;;
7080;SDS011;3582;51.506;11.948;2022-11-20T10:51:46;21.00;;;14.98;;
7080;SDS011;3582;51.506;11.948;2022-11-20T10:57:19;22.08;;;15.57;;
7080;SDS011;3582;51.506;11.948;2022-11-20T11:02:14;26.77;;;15.33;;
7080;SDS011;3582;51.506;11.948;2022-11-20T11:04:42;23.08;;;13.73;;
7080;SDS011;3582;51.506;11.948;2022-11-20T11:07:27;24.33;;;15.57;;
7080;SDS011;3582;51.506;11.948;2022-11-20T11:09:55;23.42;;;14.77;;
7080;SDS011;3582;51.506;11.948;2022-11-20T11:12:23;23.00;;;15.15;;
7080;SDS011;3582;51.506;11.948;2022-11-20T11:14:50;22.65;;;15.18;;
7080;SDS011;3582;51.506;11.948;2022-11-20T11:17:20;23.17;;;14.07;;
7080;SDS011;3582;51.506;11.948;2022-11-20T11:19:56;24.55;;;15.98;;
7080;SDS011;3582;51.506;11.948;2022-11-20T11:22:22;23.80;;;13.93;;
7080;SDS011;3582;51.506;11.948;2022-11-20T11:24:51;19.30;;;13.03;;
7080;SDS011;3582;51.506;11.948;2022-11-20T11:27:18;21.25;;;12.82;;
7080;SDS011;3582;51.506;11.948;2022-11-20T11:29:44;20.52;;;13.40;;
7080;SDS011;3582;51.506;11.948;2022-11-20T11:32:15;20.48;;;14.52;;
7080;SDS011;3582;51.506;11.948;2022-11-20T11:34:41;21.10;;;14.23;;
7080;SDS011;3582;51.506;11.948;2022-11-20T11:37:16;20.67;;;13.53;;
7080;SDS011;3582;51.506;11.948;2022-11-20T11:39:42;19.65;;;15.63;;
7080;SDS011;3582;51.506;11.948;2022-11-20T11:42:11;22.33;;;13.80;;
7080;SDS011;3582;51.506;11.948;2022-11-20T11:44:43;39.05;;;14.57;;
7080;SDS011;3582;51.506;11.948;2022-11-20T11:52:36;23.93;;;14.33;;
7080;SDS011;3582;51.506;11.948;2022-11-20T11:55:07;20.75;;;13.80;;
7080;SDS011;3582;51.506;11.948;2022-11-20T12:00:24;25.85;;;12.90;;
7080;SDS011;3582;51.506;11.948;2022-11-20T12:02:56;19.05;;;13.77;;
7080;SDS011;3582;51.506;11.948;2022-11-20T12:05:24;21.17;;;13.15;;
7080;SDS011;3582;51.506;11.948;2022-11-20T12:07:57;19.50;;;12.30;;
7080;SDS011;3582;51.506;11.948;2022-11-20T12:10:38;18.55;;;12.88;;
7080;SDS011;3582;51.506;11.948;2022-11-20T12:15:55;20.08;;;11.57;;
7080;SDS011;3582;51.506;11.948;2022-11-20T12:18:22;17.67;;;13.37;;
7080;SDS011;3582;51.506;11.948;2022-11-20T12:20:53;14.90;;;12.85;;
7080;SDS011;3582;51.506;11.948;2022-11-20T12:23:30;25.05;;;13.70;;
7080;SDS011;3582;51.506;11.948;2022-11-20T12:26:03;15.52;;;10.82;;
7080;SDS011;3582;51.506;11.948;2022-11-20T12:28:38;15.18;;;11.63;;
7080;SDS011;3582;51.506;11.948;2022-11-20T12:31:18;20.75;;;12.85;;
7080;SDS011;3582;51.506;11.948;2022-11-20T12:34:11;22.02;;;14.50;;
7080;SDS011;3582;51.506;11.948;2022-11-20T12:39:22;21.85;;;13.40;;
7080;SDS011;3582;51.506;11.948;2022-11-20T12:50:26;20.77;;;13.63;;
7080;SDS011;3582;51.506;11.948;2022-11-20T12:53:22;19.27;;;14.60;;
7080;SDS011;3582;51.506;11.948;2022-11-20T13:00:58;21.80;;;12.97;;
7080;SDS011;3582;51.506;11.948;2022-11-20T13:03:34;19.40;;;13.23;;
7080;SDS011;3582;51.506;11.948;2022-11-20T13:06:10;23.00;;;15.00;;
7080;SDS011;3582;51.506;11.948;2022-11-20T13:08:38;22.33;;;13.77;;
7080;SDS011;3582;51.506;11.948;2022-11-20T13:11:23;18.13;;;12.10;;
7080;SDS011;3582;51.506;11.948;2022-11-20T13:16:37;23.65;;;13.35;;
7080;SDS011;3582;51.506;11.948;2022-11-20T13:19:08;18.85;;;13.43;;
7080;SDS011;3582;51.506;11.948;2022-11-20T13:21:36;18.45;;;12.50;;
7080;SDS011;3582;51.506;11.948;2022-11-20T13:26:44;20.85;;;14.00;;
7080;SDS011;3582;51.506;11.948;2022-11-20T13:29:11;14.90;;;11.95;;
7080;SDS011;3582;51.506;11.948;2022-11-20T13:31:42;19.88;;;13.68;;
7080;SDS011;3582;51.506;11.948;2022-11-20T13:34:09;16.67;;;13.02;;
7080;SDS011;3582;51.506;11.948;2022-11-20T13:36:37;18.95;;;12.65;;
7080;SDS011;3582;51.506;11.948;2022-11-20T13:39:23;18.65;;;12.52;;
7080;SDS011;3582;51.506;11.948;2022-11-20T13:41:53;15.77;;;11.50;;
7080;SDS011;3582;51.506;11.948;2022-11-20T13:44:24;25.42;;;14.30;;
7080;SDS011;3582;51.506;11.948;2022-11-20T13:46:51;16.58;;;11.38;;
7080;SDS011;3582;51.506;11.948;2022-11-20T13:51:53;18.88;;;12.35;;
7080;SDS011;3582;51.506;11.948;2022-11-20T14:02:15;19.92;;;10.85;;
7080;SDS011;3582;51.506;11.948;2022-11-20T14:04:45;16.05;;;12.07;;
7080;SDS011;3582;51.506;11.948;2022-11-20T14:07:12;13.10;;;11.15;;
7080;SDS011;3582;51.506;11.948;2022-11-20T14:09:38;16.73;;;10.38;;
7080;SDS011;3582;51.506;11.948;2022-11-20T14:12:13;21.60;;;13.53;;
7080;SDS011;3582;51.506;11.948;2022-11-20T14:14:47;15.10;;;11.75;;
7080;SDS011;3582;51.506;11.948;2022-11-20T14:19:45;16.55;;;11.68;;
7080;SDS011;3582;51.506;11.948;2022-11-20T14:24:42;17.85;;;11.95;;
7080;SDS011;3582;51.506;11.948;2022-11-20T14:27:12;18.63;;;12.55;;
7080;SDS011;3582;51.506;11.948;2022-11-20T14:29:39;18.33;;;12.52;;
7080;SDS011;3582;51.506;11.948;2022-11-20T14:32:08;22.48;;;11.85;;
7080;SDS011;3582;51.506;11.948;2022-11-20T14:34:41;20.13;;;14.55;;
7080;SDS011;3582;51.506;11.948;2022-11-20T14:37:10;17.77;;;12.13;;
7080;SDS011;3582;51.506;11.948;2022-11-20T14:39:40;14.88;;;11.82;;
7080;SDS011;3582;51.506;11.948;2022-11-20T14:42:15;18.42;;;12.02;;
7080;SDS011;3582;51.506;11.948;2022-11-20T14:44:42;22.85;;;15.40;;
7080;SDS011;3582;51.506;11.948;2022-11-20T14:47:08;22.23;;;13.50;;
7080;SDS011;3582;51.506;11.948;2022-11-20T14:49:36;18.20;;;12.73;;
7080;SDS011;3582;51.506;11.948;2022-11-20T14:52:09;23.38;;;14.18;;
7080;SDS011;3582;51.506;11.948;2022-11-20T14:54:49;15.82;;;12.65;;
7080;SDS011;3582;51.506;11.948;2022-11-20T14:57:28;20.83;;;12.95;;
7080;SDS011;3582;51.506;11.948;2022-11-20T15:02:45;17.65;;;12.60;;
7080;SDS011;3582;51.506;11.948;2022-11-20T15:05:12;17.83;;;12.50;;
7080;SDS011;3582;51.506;11.948;2022-11-20T15:07:40;20.90;;;13.10;;
7080;SDS011;3582;51.506;11.948;2022-11-20T15:10:11;17.13;;;11.02;;
7080;SDS011;3582;51.506;11.948;2022-11-20T15:12:45;20.58;;;12.77;;
7080;SDS011;3582;51.506;11.948;2022-11-20T15:15:12;21.50;;;14.80;;
7080;SDS011;3582;51.506;11.948;2022-11-20T15:17:41;24.58;;;15.77;;
7080;SDS011;3582;51.506;11.948;2022-11-20T15:20:14;25.73;;;14.45;;
7080;SDS011;3582;51.506;11.948;2022-11-20T15:22:40;16.70;;;11.80;;
7080;SDS011;3582;51.506;11.948;2022-11-20T15:25:13;21.17;;;14.35;;
7080;SDS011;3582;51.506;11.948;2022-11-20T15:27:40;25.33;;;17.40;;
7080;SDS011;3582;51.506;11.948;2022-11-20T15:30:12;21.55;;;13.82;;
7080;SDS011;3582;51.506;11.948;2022-11-20T15:32:39;18.48;;;13.52;;
7080;SDS011;3582;51.506;11.948;2022-11-20T15:35:05;17.25;;;11.65;;
7080;SDS011;3582;51.506;11.948;2022-11-20T15:37:31;23.33;;;14.13;;
7080;SDS011;3582;51.506;11.948;2022-11-20T15:39:57;20.00;;;13.53;;
7080;SDS011;3582;51.506;11.948;2022-11-20T15:42:23;18.93;;;12.00;;
7080;SDS011;3582;51.506;11.948;2022-11-20T15:44:49;19.40;;;12.70;;
7080;SDS011;3582;51.506;11.948;2022-11-20T15:47:15;18.37;;;12.40;;
7080;SDS011;3582;51.506;11.948;2022-11-20T15:49:42;18.73;;;11.00;;
7080;SDS011;3582;51.506;11.948;2022-11-20T15:52:08;17.30;;;12.15;;
7080;SDS011;3582;51.506;11.948;2022-11-20T15:54:35;20.88;;;12.40;;
7080;SDS011;3582;51.506;11.948;2022-11-20T15:57:01;19.02;;;11.98;;
7080;SDS011;3582;51.506;11.948;2022-11-20T15:59:27;21.27;;;13.38;;